sensor_id;sensor_type;location;lat;lon;timestamp;P1;durP1;ratioP1;P2;durP2;ratioP2
73015;SDS011;61893;50.074;14.440;2022-11-20T00:01:20;69.00;;;28.43;;
73015;SDS011;61893;50.074;14.440;2022-11-20T00:03:48;68.33;;;27.63;;
73015;SDS011;61893;50.074;14.440;2022-11-20T00:06:15;69.07;;;26.87;;
73015;SDS011;61893;50.074;14.440;2022-11-20T00:08:42;70.50;;;25.00;;
73015;SDS011;61893;50.074;14.440;2022-11-20T00:11:21;62.20;;;25.80;;
73015;SDS011;61893;50.074;14.440;2022-11-20T00:13:49;71.40;;;27.63;;
73015;SDS011;61893;50.074;14.440;2022-11-20T00:16:18;74.70;;;26.33;;
73015;SDS011;61893;50.074;14.440;2022-11-20T00:18:45;62.63;;;23.83;;
73015;SDS011;61893;50.074;14.440;2022-11-20T00:21:13;63.47;;;24.53;;
73015;SDS011;61893;50.074;14.440;2022-11-20T00:23:47;58.78;;;22.98;;
73015;SDS011;61893;50.074;14.440;2022-11-20T00:26:14;66.03;;;24.70;;
73015;SDS011;61893;50.074;14.440;2022-11-20T00:28:42;67.83;;;24.47;;
73015;SDS011;61893;50.074;14.440;2022-11-20T00:31:13;64.80;;;25.63;;
73015;SDS011;61893;50.074;14.440;2022-11-20T00:33:41;66.27;;;25.60;;
73015;SDS011;61893;50.074;14.440;2022-11-20T00:36:17;66.80;;;23.40;;
73015;SDS011;61893;50.074;14.440;2022-11-20T00:38:45;70.90;;;26.63;;
73015;SDS011;61893;50.074;14.440;2022-11-20T00:41:13;68.77;;;25.47;;
73015;SDS011;61893;50.074;14.440;2022-11-20T00:43:40;69.60;;;24.17;;
73015;SDS011;61893;50.074;14.440;2022-11-20T00:46:08;71.40;;;25.30;;
73015;SDS011;61893;50.074;14.440;2022-11-20T00:48:40;70.67;;;26.77;;
73015;SDS011;61893;50.074;14.440;2022-11-20T00:51:28;65.23;;;25.33;;
73015;SDS011;61893;50.074;14.440;2022-11-20T00:53:57;69.50;;;24.87;;
73015;SDS011;61893;50.074;14.440;2022-11-20T00:56:23;65.57;;;24.90;;
73015;SDS011;61893;50.074;14.440;2022-11-20T00:58:49;74.17;;;25.63;;
73015;SDS011;61893;50.074;14.440;2022-11-20T01:01:16;68.17;;;25.77;;
73015;SDS011;61893;50.074;14.440;2022-11-20T01:03:44;66.13;;;24.83;;
73015;SDS011;61893;50.074;14.440;2022-11-20T01:06:13;64.33;;;26.27;;
73015;SDS011;61893;50.074;14.440;2022-11-20T01:08:41;68.97;;;24.90;;
73015;SDS011;61893;50.074;14.440;2022-11-20T01:11:09;65.43;;;25.33;;
73015;SDS011;61893;50.074;14.440;2022-11-20T01:13:41;67.23;;;25.00;;
73015;SDS011;61893;50.074;14.440;2022-11-20T01:18:39;68.33;;;25.57;;
73015;SDS011;61893;50.074;14.440;2022-11-20T01:21:09;59.70;;;22.40;;
73015;SDS011;61893;50.074;14.440;2022-11-20T01:23:41;61.67;;;22.33;;
73015;SDS011;61893;50.074;14.440;2022-11-20T01:26:12;65.77;;;24.37;;
73015;SDS011;61893;50.074;14.440;2022-11-20T01:28:39;58.57;;;22.50;;
73015;SDS011;61893;50.074;14.440;2022-11-20T01:33:42;54.33;;;22.93;;
73015;SDS011;61893;50.074;14.440;2022-11-20T01:36:09;66.70;;;24.70;;
73015;SDS011;61893;50.074;14.440;2022-11-20T01:38:36;64.37;;;24.87;;
73015;SDS011;61893;50.074;14.440;2022-11-20T01:41:02;65.57;;;23.70;;
73015;SDS011;61893;50.074;14.440;2022-11-20T01:43:29;60.17;;;23.40;;
73015;SDS011;61893;50.074;14.440;2022-11-20T01:46:17;66.97;;;24.10;;
73015;SDS011;61893;50.074;14.440;2022-11-20T01:48:46;68.47;;;24.53;;
73015;SDS011;61893;50.074;14.440;2022-11-20T01:51:18;62.03;;;24.73;;
73015;SDS011;61893;50.074;14.440;2022-11-20T01:53:53;53.57;;;21.20;;
73015;SDS011;61893;50.074;14.440;2022-11-20T01:56:23;55.00;;;22.87;;
73015;SDS011;61893;50.074;14.440;2022-11-20T01:58:52;60.70;;;23.37;;
73015;SDS011;61893;50.074;14.440;2022-11-20T02:01:21;63.90;;;23.57;;
73015;SDS011;61893;50.074;14.440;2022-11-20T02:03:48;66.33;;;22.67;;
73015;SDS011;61893;50.074;14.440;2022-11-20T02:08:56;61.77;;;24.13;;
73015;SDS011;61893;50.074;14.440;2022-11-20T02:11:23;61.77;;;22.80;;
73015;SDS011;61893;50.074;14.440;2022-11-20T02:13:49;55.13;;;23.33;;
73015;SDS011;61893;50.074;14.440;2022-11-20T02:16:16;58.77;;;22.70;;
73015;SDS011;61893;50.074;14.440;2022-11-20T02:18:46;58.93;;;23.73;;
73015;SDS011;61893;50.074;14.440;2022-11-20T02:26:46;50.00;;;21.27;;
73015;SDS011;61893;50.074;14.440;2022-11-20T02:29:19;57.93;;;21.43;;
73015;SDS011;61893;50.074;14.440;2022-11-20T02:31:51;53.67;;;21.47;;
73015;SDS011;61893;50.074;14.440;2022-11-20T02:34:19;53.47;;;22.07;;
73015;SDS011;61893;50.074;14.440;2022-11-20T02:36:44;60.37;;;22.07;;
73015;SDS011;61893;50.074;14.440;2022-11-20T02:39:12;48.60;;;20.67;;
73015;SDS011;61893;50.074;14.440;2022-11-20T02:41:42;57.33;;;22.33;;
73015;SDS011;61893;50.074;14.440;2022-11-20T02:44:08;56.13;;;22.20;;
73015;SDS011;61893;50.074;14.440;2022-11-20T02:46:34;50.53;;;20.93;;
73015;SDS011;61893;50.074;14.440;2022-11-20T02:49:01;57.37;;;21.13;;
73015;SDS011;61893;50.074;14.440;2022-11-20T02:51:28;53.67;;;21.00;;
73015;SDS011;61893;50.074;14.440;2022-11-20T02:53:54;56.40;;;21.37;;
73015;SDS011;61893;50.074;14.440;2022-11-20T02:56:20;54.23;;;21.10;;
73015;SDS011;61893;50.074;14.440;2022-11-20T02:58:46;52.27;;;20.67;;
73015;SDS011;61893;50.074;14.440;2022-11-20T03:01:12;61.53;;;22.47;;
73015;SDS011;61893;50.074;14.440;2022-11-20T03:03:38;56.20;;;21.13;;
73015;SDS011;61893;50.074;14.440;2022-11-20T03:06:04;57.83;;;21.80;;
73015;SDS011;61893;50.074;14.440;2022-11-20T03:08:30;55.10;;;21.23;;
73015;SDS011;61893;50.074;14.440;2022-11-20T03:10:56;56.20;;;20.87;;
73015;SDS011;61893;50.074;14.440;2022-11-20T03:13:22;48.50;;;19.50;;
73015;SDS011;61893;50.074;14.440;2022-11-20T03:15:49;46.37;;;18.87;;
73015;SDS011;61893;50.074;14.440;2022-11-20T03:18:16;47.80;;;19.23;;
73015;SDS011;61893;50.074;14.440;2022-11-20T03:20:41;49.27;;;20.80;;
73015;SDS011;61893;50.074;14.440;2022-11-20T03:23:07;55.87;;;21.67;;
73015;SDS011;61893;50.074;14.440;2022-11-20T03:25:33;58.70;;;22.13;;
73015;SDS011;61893;50.074;14.440;2022-11-20T03:27:59;60.53;;;21.33;;
73015;SDS011;61893;50.074;14.440;2022-11-20T03:30:25;51.47;;;20.27;;
73015;SDS011;61893;50.074;14.440;2022-11-20T03:32:52;54.53;;;20.13;;
73015;SDS011;61893;50.074;14.440;2022-11-20T03:35:19;53.47;;;21.73;;
73015;SDS011;61893;50.074;14.440;2022-11-20T03:37:45;48.17;;;19.70;;
73015;SDS011;61893;50.074;14.440;2022-11-20T03:40:11;48.47;;;19.83;;
73015;SDS011;61893;50.074;14.440;2022-11-20T03:42:37;48.73;;;20.57;;
73015;SDS011;61893;50.074;14.440;2022-11-20T03:45:13;51.03;;;19.40;;
73015;SDS011;61893;50.074;14.440;2022-11-20T03:47:41;46.83;;;18.57;;
73015;SDS011;61893;50.074;14.440;2022-11-20T03:50:07;51.27;;;19.80;;
73015;SDS011;61893;50.074;14.440;2022-11-20T03:52:35;44.47;;;16.90;;
73015;SDS011;61893;50.074;14.440;2022-11-20T03:55:00;47.93;;;18.67;;
73015;SDS011;61893;50.074;14.440;2022-11-20T03:57:27;44.77;;;17.73;;
73015;SDS011;61893;50.074;14.440;2022-11-20T03:59:53;47.23;;;18.03;;
73015;SDS011;61893;50.074;14.440;2022-11-20T04:02:19;48.07;;;18.97;;
73015;SDS011;61893;50.074;14.440;2022-11-20T04:04:45;39.83;;;17.73;;
73015;SDS011;61893;50.074;14.440;2022-11-20T04:07:12;46.70;;;19.40;;
73015;SDS011;61893;50.074;14.440;2022-11-20T04:09:37;44.90;;;18.30;;
73015;SDS011;61893;50.074;14.440;2022-11-20T04:12:03;44.83;;;18.57;;
73015;SDS011;61893;50.074;14.440;2022-11-20T04:14:29;44.30;;;19.70;;
73015;SDS011;61893;50.074;14.440;2022-11-20T04:16:56;46.77;;;17.90;;
73015;SDS011;61893;50.074;14.440;2022-11-20T04:19:21;47.53;;;19.07;;
73015;SDS011;61893;50.074;14.440;2022-11-20T04:21:47;42.90;;;18.87;;
73015;SDS011;61893;50.074;14.440;2022-11-20T04:24:13;46.20;;;19.53;;
73015;SDS011;61893;50.074;14.440;2022-11-20T04:26:40;48.27;;;20.60;;
73015;SDS011;61893;50.074;14.440;2022-11-20T04:29:06;53.20;;;20.33;;
73015;SDS011;61893;50.074;14.440;2022-11-20T04:31:35;53.10;;;21.57;;
73015;SDS011;61893;50.074;14.440;2022-11-20T04:34:04;57.33;;;22.10;;
73015;SDS011;61893;50.074;14.440;2022-11-20T04:36:32;56.83;;;21.70;;
73015;SDS011;61893;50.074;14.440;2022-11-20T04:38:59;53.60;;;22.53;;
73015;SDS011;61893;50.074;14.440;2022-11-20T04:41:30;56.57;;;23.00;;
73015;SDS011;61893;50.074;14.440;2022-11-20T04:43:59;57.17;;;23.20;;
73015;SDS011;61893;50.074;14.440;2022-11-20T04:46:29;53.43;;;23.43;;
73015;SDS011;61893;50.074;14.440;2022-11-20T04:48:56;52.33;;;20.70;;
73015;SDS011;61893;50.074;14.440;2022-11-20T04:51:22;57.33;;;24.63;;
73015;SDS011;61893;50.074;14.440;2022-11-20T04:53:48;48.63;;;20.93;;
73015;SDS011;61893;50.074;14.440;2022-11-20T04:56:14;45.20;;;20.93;;
73015;SDS011;61893;50.074;14.440;2022-11-20T04:58:39;53.80;;;22.53;;
73015;SDS011;61893;50.074;14.440;2022-11-20T05:01:06;53.93;;;21.23;;
73015;SDS011;61893;50.074;14.440;2022-11-20T05:03:40;50.13;;;22.23;;
73015;SDS011;61893;50.074;14.440;2022-11-20T05:06:07;57.13;;;24.03;;
73015;SDS011;61893;50.074;14.440;2022-11-20T05:08:34;45.70;;;19.93;;
73015;SDS011;61893;50.074;14.440;2022-11-20T05:11:04;50.97;;;21.77;;
73015;SDS011;61893;50.074;14.440;2022-11-20T05:16:04;40.47;;;18.63;;
73015;SDS011;61893;50.074;14.440;2022-11-20T05:18:37;48.37;;;20.30;;
73015;SDS011;61893;50.074;14.440;2022-11-20T05:21:04;59.67;;;23.90;;
73015;SDS011;61893;50.074;14.440;2022-11-20T05:23:30;55.33;;;22.43;;
73015;SDS011;61893;50.074;14.440;2022-11-20T05:25:57;55.27;;;21.07;;
73015;SDS011;61893;50.074;14.440;2022-11-20T05:28:24;64.07;;;22.83;;
73015;SDS011;61893;50.074;14.440;2022-11-20T05:30:50;54.70;;;21.53;;
73015;SDS011;61893;50.074;14.440;2022-11-20T05:33:16;57.00;;;23.97;;
73015;SDS011;61893;50.074;14.440;2022-11-20T05:35:42;55.73;;;22.67;;
73015;SDS011;61893;50.074;14.440;2022-11-20T05:38:08;53.30;;;22.97;;
73015;SDS011;61893;50.074;14.440;2022-11-20T05:40:35;51.30;;;22.57;;
73015;SDS011;61893;50.074;14.440;2022-11-20T05:43:00;58.50;;;22.40;;
73015;SDS011;61893;50.074;14.440;2022-11-20T05:45:27;58.47;;;25.53;;
73015;SDS011;61893;50.074;14.440;2022-11-20T05:47:53;58.53;;;22.30;;
73015;SDS011;61893;50.074;14.440;2022-11-20T05:50:19;56.50;;;22.83;;
73015;SDS011;61893;50.074;14.440;2022-11-20T05:52:44;63.30;;;25.87;;
73015;SDS011;61893;50.074;14.440;2022-11-20T05:55:10;54.13;;;23.73;;
73015;SDS011;61893;50.074;14.440;2022-11-20T05:57:36;68.63;;;25.20;;
73015;SDS011;61893;50.074;14.440;2022-11-20T06:00:02;61.60;;;25.23;;
73015;SDS011;61893;50.074;14.440;2022-11-20T06:02:29;60.40;;;25.57;;
73015;SDS011;61893;50.074;14.440;2022-11-20T06:04:55;74.17;;;26.73;;
73015;SDS011;61893;50.074;14.440;2022-11-20T06:07:25;60.53;;;24.57;;
73015;SDS011;61893;50.074;14.440;2022-11-20T06:09:52;62.77;;;25.03;;
73015;SDS011;61893;50.074;14.440;2022-11-20T06:12:18;65.23;;;26.83;;
73015;SDS011;61893;50.074;14.440;2022-11-20T06:14:44;62.07;;;27.13;;
73015;SDS011;61893;50.074;14.440;2022-11-20T06:17:10;65.90;;;27.60;;
73015;SDS011;61893;50.074;14.440;2022-11-20T06:19:35;63.33;;;27.20;;
73015;SDS011;61893;50.074;14.440;2022-11-20T06:22:01;69.87;;;29.30;;
73015;SDS011;61893;50.074;14.440;2022-11-20T06:24:28;69.20;;;27.57;;
73015;SDS011;61893;50.074;14.440;2022-11-20T06:26:54;58.27;;;22.43;;
73015;SDS011;61893;50.074;14.440;2022-11-20T06:29:20;68.63;;;25.93;;
73015;SDS011;61893;50.074;14.440;2022-11-20T06:31:46;63.50;;;24.93;;
73015;SDS011;61893;50.074;14.440;2022-11-20T06:34:12;57.50;;;24.17;;
73015;SDS011;61893;50.074;14.440;2022-11-20T06:36:42;61.77;;;24.73;;
73015;SDS011;61893;50.074;14.440;2022-11-20T06:39:08;52.17;;;22.43;;
73015;SDS011;61893;50.074;14.440;2022-11-20T06:41:34;62.10;;;24.37;;
73015;SDS011;61893;50.074;14.440;2022-11-20T06:44:00;55.80;;;23.63;;
73015;SDS011;61893;50.074;14.440;2022-11-20T06:46:26;58.40;;;23.67;;
73015;SDS011;61893;50.074;14.440;2022-11-20T06:48:55;57.37;;;24.03;;
73015;SDS011;61893;50.074;14.440;2022-11-20T06:51:21;60.70;;;23.07;;
73015;SDS011;61893;50.074;14.440;2022-11-20T06:53:48;50.57;;;22.20;;
73015;SDS011;61893;50.074;14.440;2022-11-20T06:56:13;57.00;;;24.53;;
73015;SDS011;61893;50.074;14.440;2022-11-20T06:58:40;60.00;;;25.67;;
73015;SDS011;61893;50.074;14.440;2022-11-20T07:01:06;56.57;;;23.67;;
73015;SDS011;61893;50.074;14.440;2022-11-20T07:03:35;54.03;;;21.60;;
73015;SDS011;61893;50.074;14.440;2022-11-20T07:06:01;59.20;;;24.00;;
73015;SDS011;61893;50.074;14.440;2022-11-20T07:08:28;52.33;;;21.73;;
73015;SDS011;61893;50.074;14.440;2022-11-20T07:10:58;45.13;;;20.37;;
73015;SDS011;61893;50.074;14.440;2022-11-20T07:13:29;59.47;;;23.77;;
73015;SDS011;61893;50.074;14.440;2022-11-20T07:15:58;52.33;;;22.33;;
73015;SDS011;61893;50.074;14.440;2022-11-20T07:18:25;46.63;;;20.47;;
73015;SDS011;61893;50.074;14.440;2022-11-20T07:20:51;56.03;;;21.87;;
73015;SDS011;61893;50.074;14.440;2022-11-20T07:23:17;53.83;;;21.93;;
73015;SDS011;61893;50.074;14.440;2022-11-20T07:25:43;57.70;;;22.90;;
73015;SDS011;61893;50.074;14.440;2022-11-20T07:28:09;57.00;;;23.90;;
73015;SDS011;61893;50.074;14.440;2022-11-20T07:30:35;48.87;;;21.30;;
73015;SDS011;61893;50.074;14.440;2022-11-20T07:33:02;56.33;;;22.30;;
73015;SDS011;61893;50.074;14.440;2022-11-20T07:35:28;55.73;;;21.73;;
73015;SDS011;61893;50.074;14.440;2022-11-20T07:37:54;54.90;;;21.57;;
73015;SDS011;61893;50.074;14.440;2022-11-20T07:40:19;47.90;;;21.20;;
73015;SDS011;61893;50.074;14.440;2022-11-20T07:42:53;49.30;;;20.70;;
73015;SDS011;61893;50.074;14.440;2022-11-20T07:45:21;48.10;;;19.83;;
73015;SDS011;61893;50.074;14.440;2022-11-20T07:48:03;45.60;;;19.63;;
73015;SDS011;61893;50.074;14.440;2022-11-20T07:50:29;48.43;;;20.77;;
73015;SDS011;61893;50.074;14.440;2022-11-20T07:53:02;50.10;;;20.60;;
73015;SDS011;61893;50.074;14.440;2022-11-20T07:57:55;45.70;;;17.63;;
73015;SDS011;61893;50.074;14.440;2022-11-20T08:00:22;45.00;;;18.00;;
73015;SDS011;61893;50.074;14.440;2022-11-20T08:02:48;45.50;;;17.27;;
73015;SDS011;61893;50.074;14.440;2022-11-20T08:05:15;50.17;;;19.70;;
73015;SDS011;61893;50.074;14.440;2022-11-20T08:07:41;42.87;;;19.20;;
73015;SDS011;61893;50.074;14.440;2022-11-20T08:10:09;48.03;;;20.30;;
73015;SDS011;61893;50.074;14.440;2022-11-20T08:12:47;47.83;;;20.67;;
73015;SDS011;61893;50.074;14.440;2022-11-20T08:15:33;45.93;;;20.20;;
73015;SDS011;61893;50.074;14.440;2022-11-20T08:18:04;44.77;;;18.83;;
73015;SDS011;61893;50.074;14.440;2022-11-20T08:20:35;47.70;;;20.57;;
73015;SDS011;61893;50.074;14.440;2022-11-20T08:23:01;46.83;;;20.20;;
73015;SDS011;61893;50.074;14.440;2022-11-20T08:25:39;55.27;;;23.03;;
73015;SDS011;61893;50.074;14.440;2022-11-20T08:28:06;54.43;;;23.13;;
73015;SDS011;61893;50.074;14.440;2022-11-20T08:30:34;51.60;;;22.07;;
73015;SDS011;61893;50.074;14.440;2022-11-20T08:33:07;49.33;;;19.57;;
73015;SDS011;61893;50.074;14.440;2022-11-20T08:35:35;51.83;;;21.63;;
73015;SDS011;61893;50.074;14.440;2022-11-20T08:38:02;50.53;;;19.60;;
73015;SDS011;61893;50.074;14.440;2022-11-20T08:40:29;47.67;;;21.80;;
73015;SDS011;61893;50.074;14.440;2022-11-20T08:42:54;41.30;;;18.63;;
73015;SDS011;61893;50.074;14.440;2022-11-20T08:45:20;53.80;;;22.60;;
73015;SDS011;61893;50.074;14.440;2022-11-20T08:47:46;50.40;;;20.50;;
73015;SDS011;61893;50.074;14.440;2022-11-20T08:50:13;47.00;;;20.10;;
73015;SDS011;61893;50.074;14.440;2022-11-20T08:52:40;46.37;;;19.50;;
73015;SDS011;61893;50.074;14.440;2022-11-20T08:55:07;48.47;;;21.27;;
73015;SDS011;61893;50.074;14.440;2022-11-20T08:57:33;42.87;;;19.47;;
73015;SDS011;61893;50.074;14.440;2022-11-20T09:00:00;38.97;;;17.53;;
73015;SDS011;61893;50.074;14.440;2022-11-20T09:02:26;44.13;;;19.90;;
73015;SDS011;61893;50.074;14.440;2022-11-20T09:04:52;42.33;;;19.67;;
73015;SDS011;61893;50.074;14.440;2022-11-20T09:07:18;46.77;;;19.73;;
73015;SDS011;61893;50.074;14.440;2022-11-20T09:09:45;46.37;;;19.37;;
73015;SDS011;61893;50.074;14.440;2022-11-20T09:12:11;50.37;;;20.23;;
73015;SDS011;61893;50.074;14.440;2022-11-20T09:14:37;48.43;;;20.50;;
73015;SDS011;61893;50.074;14.440;2022-11-20T09:17:02;46.30;;;20.33;;
73015;SDS011;61893;50.074;14.440;2022-11-20T09:19:28;47.83;;;19.57;;
73015;SDS011;61893;50.074;14.440;2022-11-20T09:21:54;50.93;;;22.13;;
73015;SDS011;61893;50.074;14.440;2022-11-20T09:24:20;48.70;;;21.27;;
73015;SDS011;61893;50.074;14.440;2022-11-20T09:26:46;50.87;;;21.03;;
73015;SDS011;61893;50.074;14.440;2022-11-20T09:29:12;50.37;;;20.57;;
73015;SDS011;61893;50.074;14.440;2022-11-20T09:31:41;47.70;;;20.57;;
73015;SDS011;61893;50.074;14.440;2022-11-20T09:34:07;47.57;;;20.53;;
73015;SDS011;61893;50.074;14.440;2022-11-20T09:36:32;49.70;;;22.43;;
73015;SDS011;61893;50.074;14.440;2022-11-20T09:38:58;48.83;;;20.90;;
73015;SDS011;61893;50.074;14.440;2022-11-20T09:44:48;42.40;;;18.57;;
73015;SDS011;61893;50.074;14.440;2022-11-20T09:55:55;52.30;;;21.47;;
73015;SDS011;61893;50.074;14.440;2022-11-20T09:58:44;55.37;;;21.57;;
73015;SDS011;61893;50.074;14.440;2022-11-20T10:01:15;47.40;;;20.60;;
73015;SDS011;61893;50.074;14.440;2022-11-20T10:07:07;56.30;;;23.83;;
73015;SDS011;61893;50.074;14.440;2022-11-20T10:09:51;49.93;;;21.43;;
73015;SDS011;61893;50.074;14.440;2022-11-20T10:29:18;51.55;;;22.50;;
73015;SDS011;61893;50.074;14.440;2022-11-20T10:31:56;51.90;;;22.83;;
73015;SDS011;61893;50.074;14.440;2022-11-20T10:34:31;56.27;;;23.90;;
73015;SDS011;61893;50.074;14.440;2022-11-20T10:37:14;49.47;;;22.80;;
73015;SDS011;61893;50.074;14.440;2022-11-20T10:39:49;52.87;;;22.37;;
73015;SDS011;61893;50.074;14.440;2022-11-20T10:42:17;52.00;;;22.47;;
73015;SDS011;61893;50.074;14.440;2022-11-20T10:44:57;54.50;;;22.23;;
73015;SDS011;61893;50.074;14.440;2022-11-20T10:47:37;49.77;;;21.57;;
73015;SDS011;61893;50.074;14.440;2022-11-20T10:50:04;53.47;;;23.67;;
73015;SDS011;61893;50.074;14.440;2022-11-20T10:55:08;53.53;;;22.23;;
73015;SDS011;61893;50.074;14.440;2022-11-20T10:58:14;57.00;;;23.83;;
73015;SDS011;61893;50.074;14.440;2022-11-20T11:00:42;51.07;;;22.73;;
73015;SDS011;61893;50.074;14.440;2022-11-20T11:03:20;54.37;;;23.47;;
73015;SDS011;61893;50.074;14.440;2022-11-20T11:08:58;57.80;;;23.93;;
73015;SDS011;61893;50.074;14.440;2022-11-20T11:11:30;59.67;;;24.20;;
73015;SDS011;61893;50.074;14.440;2022-11-20T11:16:31;56.37;;;22.73;;
73015;SDS011;61893;50.074;14.440;2022-11-20T11:19:11;51.50;;;24.23;;
73015;SDS011;61893;50.074;14.440;2022-11-20T11:21:38;57.93;;;23.80;;
73015;SDS011;61893;50.074;14.440;2022-11-20T11:24:30;53.33;;;22.63;;
73015;SDS011;61893;50.074;14.440;2022-11-20T11:29:32;51.57;;;23.43;;
73015;SDS011;61893;50.074;14.440;2022-11-20T11:35:04;53.57;;;23.53;;
73015;SDS011;61893;50.074;14.440;2022-11-20T11:37:35;54.23;;;23.50;;
73015;SDS011;61893;50.074;14.440;2022-11-20T11:40:04;51.13;;;23.17;;
73015;SDS011;61893;50.074;14.440;2022-11-20T11:42:32;59.23;;;25.13;;
73015;SDS011;61893;50.074;14.440;2022-11-20T11:45:02;53.03;;;23.40;;
73015;SDS011;61893;50.074;14.440;2022-11-20T11:47:42;59.60;;;25.27;;
73015;SDS011;61893;50.074;14.440;2022-11-20T11:50:27;60.43;;;25.30;;
73015;SDS011;61893;50.074;14.440;2022-11-20T11:53:16;59.37;;;26.10;;
73015;SDS011;61893;50.074;14.440;2022-11-20T11:55:58;57.20;;;26.30;;
73015;SDS011;61893;50.074;14.440;2022-11-20T12:01:27;55.17;;;24.57;;
73015;SDS011;61893;50.074;14.440;2022-11-20T12:06:43;56.93;;;23.60;;
73015;SDS011;61893;50.074;14.440;2022-11-20T12:09:12;56.90;;;25.10;;
73015;SDS011;61893;50.074;14.440;2022-11-20T12:11:53;54.57;;;24.27;;
73015;SDS011;61893;50.074;14.440;2022-11-20T12:14:21;47.93;;;22.53;;
73015;SDS011;61893;50.074;14.440;2022-11-20T12:17:08;64.40;;;24.83;;
73015;SDS011;61893;50.074;14.440;2022-11-20T12:19:37;55.57;;;23.77;;
73015;SDS011;61893;50.074;14.440;2022-11-20T12:22:17;58.00;;;24.43;;
73015;SDS011;61893;50.074;14.440;2022-11-20T12:39:05;52.03;;;23.30;;
73015;SDS011;61893;50.074;14.440;2022-11-20T12:45:12;58.65;;;23.45;;
73015;SDS011;61893;50.074;14.440;2022-11-20T12:48:01;58.37;;;24.40;;
73015;SDS011;61893;50.074;14.440;2022-11-20T13:01:52;64.33;;;27.17;;
73015;SDS011;61893;50.074;14.440;2022-11-20T13:07:01;57.27;;;23.80;;
73015;SDS011;61893;50.074;14.440;2022-11-20T13:09:29;62.20;;;25.77;;
73015;SDS011;61893;50.074;14.440;2022-11-20T13:12:09;56.17;;;25.13;;
73015;SDS011;61893;50.074;14.440;2022-11-20T13:18:28;58.97;;;23.27;;
73015;SDS011;61893;50.074;14.440;2022-11-20T13:21:01;57.23;;;24.47;;
73015;SDS011;61893;50.074;14.440;2022-11-20T13:24:06;58.57;;;23.40;;
73015;SDS011;61893;50.074;14.440;2022-11-20T13:27:16;59.97;;;24.77;;
73015;SDS011;61893;50.074;14.440;2022-11-20T13:29:42;56.47;;;23.97;;
73015;SDS011;61893;50.074;14.440;2022-11-20T13:32:53;48.60;;;22.80;;
73015;SDS011;61893;50.074;14.440;2022-11-20T13:36:00;56.20;;;23.50;;
73015;SDS011;61893;50.074;14.440;2022-11-20T13:38:27;54.67;;;23.20;;
73015;SDS011;61893;50.074;14.440;2022-11-20T13:41:09;56.93;;;22.93;;
73015;SDS011;61893;50.074;14.440;2022-11-20T13:43:54;54.87;;;22.07;;
73015;SDS011;61893;50.074;14.440;2022-11-20T13:46:43;57.20;;;22.83;;
73015;SDS011;61893;50.074;14.440;2022-11-20T13:51:58;54.27;;;22.63;;
73015;SDS011;61893;50.074;14.440;2022-11-20T13:57:42;57.88;;;23.58;;
73015;SDS011;61893;50.074;14.440;2022-11-20T14:00:27;56.83;;;23.23;;
73015;SDS011;61893;50.074;14.440;2022-11-20T14:03:17;59.17;;;23.43;;
73015;SDS011;61893;50.074;14.440;2022-11-20T14:05:50;54.57;;;22.87;;
73015;SDS011;61893;50.074;14.440;2022-11-20T14:08:23;54.58;;;24.30;;
73015;SDS011;61893;50.074;14.440;2022-11-20T14:11:04;63.73;;;25.70;;
73015;SDS011;61893;50.074;14.440;2022-11-20T14:13:34;57.43;;;24.47;;
73015;SDS011;61893;50.074;14.440;2022-11-20T14:16:48;63.90;;;26.00;;
73015;SDS011;61893;50.074;14.440;2022-11-20T14:21:49;55.70;;;26.38;;
73015;SDS011;61893;50.074;14.440;2022-11-20T14:24:23;58.17;;;25.83;;
73015;SDS011;61893;50.074;14.440;2022-11-20T14:27:04;68.17;;;28.80;;
73015;SDS011;61893;50.074;14.440;2022-11-20T14:30:02;59.88;;;26.38;;
73015;SDS011;61893;50.074;14.440;2022-11-20T14:33:35;62.17;;;26.20;;
73015;SDS011;61893;50.074;14.440;2022-11-20T14:37:38;55.83;;;24.07;;
73015;SDS011;61893;50.074;14.440;2022-11-20T14:40:33;60.47;;;25.33;;
73015;SDS011;61893;50.074;14.440;2022-11-20T14:43:01;52.47;;;24.47;;
73015;SDS011;61893;50.074;14.440;2022-11-20T14:46:45;63.60;;;26.50;;
73015;SDS011;61893;50.074;14.440;2022-11-20T14:49:49;56.97;;;26.03;;
73015;SDS011;61893;50.074;14.440;2022-11-20T14:52:21;64.50;;;25.53;;
73015;SDS011;61893;50.074;14.440;2022-11-20T14:55:14;64.03;;;27.53;;
73015;SDS011;61893;50.074;14.440;2022-11-20T14:58:38;62.67;;;25.00;;
73015;SDS011;61893;50.074;14.440;2022-11-20T15:02:04;65.80;;;28.10;;
73015;SDS011;61893;50.074;14.440;2022-11-20T15:07:22;65.47;;;26.87;;
73015;SDS011;61893;50.074;14.440;2022-11-20T15:10:09;56.63;;;25.43;;
73015;SDS011;61893;50.074;14.440;2022-11-20T15:13:23;61.07;;;27.27;;
73015;SDS011;61893;50.074;14.440;2022-11-20T15:15:53;59.80;;;25.70;;
73015;SDS011;61893;50.074;14.440;2022-11-20T15:18:39;68.53;;;27.10;;
73015;SDS011;61893;50.074;14.440;2022-11-20T15:21:19;67.20;;;27.30;;
73015;SDS011;61893;50.074;14.440;2022-11-20T15:23:46;67.63;;;29.03;;
73015;SDS011;61893;50.074;14.440;2022-11-20T15:26:13;73.73;;;28.40;;
73015;SDS011;61893;50.074;14.440;2022-11-20T15:28:52;71.40;;;28.90;;
73015;SDS011;61893;50.074;14.440;2022-11-20T15:31:42;70.35;;;29.45;;
73015;SDS011;61893;50.074;14.440;2022-11-20T15:34:11;70.40;;;27.58;;
73015;SDS011;61893;50.074;14.440;2022-11-20T15:36:42;71.97;;;27.53;;
73015;SDS011;61893;50.074;14.440;2022-11-20T15:39:40;72.10;;;30.90;;
73015;SDS011;61893;50.074;14.440;2022-11-20T15:42:06;65.20;;;27.33;;
73015;SDS011;61893;50.074;14.440;2022-11-20T15:44:48;64.97;;;28.37;;
73015;SDS011;61893;50.074;14.440;2022-11-20T15:47:21;74.70;;;31.23;;
73015;SDS011;61893;50.074;14.440;2022-11-20T15:54:20;65.33;;;28.30;;
73015;SDS011;61893;50.074;14.440;2022-11-20T15:58:08;68.77;;;28.73;;
73015;SDS011;61893;50.074;14.440;2022-11-20T16:00:47;70.77;;;29.33;;
73015;SDS011;61893;50.074;14.440;2022-11-20T16:04:16;65.97;;;28.80;;
73015;SDS011;61893;50.074;14.440;2022-11-20T16:07:08;69.37;;;28.97;;
73015;SDS011;61893;50.074;14.440;2022-11-20T16:10:17;61.67;;;28.90;;
73015;SDS011;61893;50.074;14.440;2022-11-20T16:13:45;71.53;;;29.37;;
73015;SDS011;61893;50.074;14.440;2022-11-20T16:16:30;77.00;;;32.00;;
73015;SDS011;61893;50.074;14.440;2022-11-20T16:19:13;72.07;;;29.80;;
73015;SDS011;61893;50.074;14.440;2022-11-20T16:22:02;65.40;;;27.73;;
73015;SDS011;61893;50.074;14.440;2022-11-20T16:24:47;69.30;;;29.50;;
73015;SDS011;61893;50.074;14.440;2022-11-20T16:27:54;66.23;;;28.57;;
73015;SDS011;61893;50.074;14.440;2022-11-20T16:31:44;68.43;;;27.53;;
73015;SDS011;61893;50.074;14.440;2022-11-20T16:34:16;70.40;;;29.37;;
73015;SDS011;61893;50.074;14.440;2022-11-20T16:36:42;71.43;;;29.63;;
73015;SDS011;61893;50.074;14.440;2022-11-20T16:39:28;72.07;;;29.10;;
73015;SDS011;61893;50.074;14.440;2022-11-20T16:42:23;67.00;;;28.00;;
73015;SDS011;61893;50.074;14.440;2022-11-20T16:45:17;77.00;;;29.83;;